Time;durP1;ratioP1;P1;durP2;ratioP2;P2;SDS_P1;SDS_P2;PMS_P1;PMS_P2;Temp;Humidity;BMP_temperature;BMP_pressure;BME280_temperature;BME280_humidity;BME280_pressure;Samples;Min_cycle;Max_cycle;Signal;HPM_P1;HPM_P2
2022/09/27 04:02:55;;;;;;;2.80;1.43;;;9.40;96.30;;;;;;4936613;29;20490;-76
2022/09/27 04:05:21;;;;;;;2.70;1.10;;;9.40;96.30;;;;;;4955540;29;20428;-74
2022/09/27 04:07:48;;;;;;;2.77;2.33;;;9.40;96.30;;;;;;4942370;29;20195;-75
2022/09/27 04:10:14;;;;;;;3.17;2.07;;;9.40;96.30;;;;;;4955749;29;20541;-76
2022/09/27 04:12:39;;;;;;;7.00;2.10;;;9.40;96.30;;;;;;4921955;29;20459;-75
2022/09/27 04:18:27;;;;;;;7.30;1.30;;;9.50;96.30;;;;;;4919697;29;20249;-73
2022/09/27 04:20:53;;;;;;;3.00;1.90;;;9.40;96.30;;;;;;4933670;29;20471;-73
2022/09/27 04:23:19;;;;;;;2.07;1.60;;;9.40;96.30;;;;;;4925097;29;20184;-78
2022/09/27 04:25:45;;;;;;;3.70;3.40;;;9.40;96.30;;;;;;4909283;29;20181;-77
2022/09/27 04:28:11;;;;;;;3.90;2.77;;;9.40;96.30;;;;;;4909539;29;20423;-77
2022/09/27 04:30:37;;;;;;;4.40;1.53;;;9.40;96.30;;;;;;4916639;29;20192;-77
2022/09/27 04:33:03;;;;;;;6.50;4.80;;;9.40;96.30;;;;;;4916737;29;20761;-78
2022/09/27 04:38:13;;;;;;;4.83;2.40;;;9.40;96.30;;;;;;4917871;29;20695;-77
2022/09/27 04:40:38;;;;;;;25.07;15.03;;;9.40;96.30;;;;;;4913050;29;20505;-78
2022/09/27 04:43:04;;;;;;;6.10;2.80;;;9.30;96.30;;;;;;4897084;29;20417;-79
2022/09/27 04:45:29;;;;;;;63.80;28.07;;;9.30;96.30;;;;;;4914934;29;20191;-79
2022/09/27 04:47:55;;;;;;;23.93;14.37;;;9.30;96.30;;;;;;4914891;29;20619;-78
2022/09/27 04:50:21;;;;;;;15.40;10.67;;;9.20;96.30;;;;;;4923199;29;20187;-77
2022/09/27 04:52:53;;;;;;;52.37;31.27;;;9.20;96.30;;;;;;4921445;29;20184;-78
2022/09/27 04:55:20;;;;;;;20.07;11.97;;;9.10;96.30;;;;;;4931896;29;20662;-78
2022/09/27 04:57:46;;;;;;;16.63;9.97;;;9.10;96.30;;;;;;4914382;29;20460;-78
2022/09/27 05:00:12;;;;;;;12.30;7.83;;;9.10;96.30;;;;;;4930530;29;20498;-74
2022/09/27 05:02:38;;;;;;;4.93;2.07;;;9.10;96.30;;;;;;4914984;29;20464;-74
2022/09/27 05:05:05;;;;;;;2.37;1.70;;;9.10;96.30;;;;;;4908442;29;20425;-74
2022/09/27 05:07:33;;;;;;;2.60;2.17;;;9.10;96.30;;;;;;4908088;29;20247;-74
2022/09/27 05:09:59;;;;;;;3.30;3.03;;;9.10;96.30;;;;;;4916366;29;20418;-74
2022/09/27 05:12:25;;;;;;;3.17;1.70;;;9.10;96.30;;;;;;4916227;29;20448;-74
2022/09/27 05:14:51;;;;;;;2.83;2.27;;;9.10;96.30;;;;;;4933253;29;20180;-75
2022/09/27 05:17:17;;;;;;;1.50;1.10;;;9.00;96.30;;;;;;4935123;29;20426;-75
2022/09/27 05:19:43;;;;;;;5.50;1.20;;;9.00;96.30;;;;;;4919914;29;20535;-75
2022/09/27 05:22:08;;;;;;;1.73;1.17;;;9.00;96.30;;;;;;4920590;29;20479;-75
2022/09/27 05:24:34;;;;;;;1.77;1.40;;;9.00;96.30;;;;;;4921037;29;20176;-76
2022/09/27 05:27:00;;;;;;;1.20;1.10;;;9.00;96.30;;;;;;4920703;29;20168;-75
2022/09/27 05:29:26;;;;;;;1.00;0.90;;;9.00;96.30;;;;;;4920599;29;20529;-75
2022/09/27 05:31:52;;;;;;;2.33;1.00;;;9.00;96.30;;;;;;4920034;29;20794;-74
2022/09/27 05:34:21;;;;;;;1.60;1.00;;;9.00;96.30;;;;;;4921121;29;20420;-76
2022/09/27 05:36:47;;;;;;;1.20;0.87;;;9.10;96.30;;;;;;4921923;29;20236;-75
2022/09/27 05:39:15;;;;;;;1.50;1.27;;;9.10;96.30;;;;;;4921532;29;20420;-76
2022/09/27 05:41:41;;;;;;;1.90;1.17;;;9.00;96.30;;;;;;4920881;29;20458;-77
2022/09/27 05:44:06;;;;;;;1.73;1.20;;;9.00;96.30;;;;;;4920050;29;20879;-76
2022/09/27 05:46:32;;;;;;;3.57;1.40;;;9.10;96.30;;;;;;4916989;29;20220;-77
2022/09/27 05:48:57;;;;;;;2.63;1.70;;;9.20;96.30;;;;;;4910207;29;20235;-77
2022/09/27 05:51:23;;;;;;;4.03;1.50;;;9.10;96.30;;;;;;4915342;29;20208;-77
2022/09/27 05:53:48;;;;;;;5.70;2.17;;;9.10;96.30;;;;;;4917479;29;20263;-77
2022/09/27 05:56:14;;;;;;;3.43;1.40;;;9.20;96.30;;;;;;4928647;29;20185;-76
2022/09/27 05:58:39;;;;;;;4.43;1.27;;;9.20;96.30;;;;;;4917543;29;20199;-78
2022/09/27 06:01:08;;;;;;;1.90;1.40;;;9.20;96.30;;;;;;4916354;29;20706;-77
2022/09/27 06:03:34;;;;;;;4.30;1.60;;;9.20;96.30;;;;;;4917207;29;20191;-76
2022/09/27 06:06:06;;;;;;;2.33;1.50;;;9.20;96.30;;;;;;4937340;29;20439;-78
2022/09/27 06:08:33;;;;;;;2.10;1.43;;;9.20;96.30;;;;;;4955185;28;20474;-79
2022/09/27 06:11:07;;;;;;;2.80;1.20;;;9.30;96.30;;;;;;4941948;29;20428;-77
2022/09/27 06:13:35;;;;;;;1.60;1.10;;;9.30;96.30;;;;;;4938600;29;20424;-76
2022/09/27 06:16:02;;;;;;;1.10;0.80;;;9.30;96.30;;;;;;4935026;29;20964;-76
2022/09/27 06:18:28;;;;;;;1.30;1.10;;;9.30;96.30;;;;;;4919804;29;20447;-75
2022/09/27 06:20:54;;;;;;;1.13;0.90;;;9.40;96.30;;;;;;4918951;29;20971;-76
2022/09/27 06:23:22;;;;;;;0.90;0.70;;;9.40;96.30;;;;;;4916494;29;20216;-78
2022/09/27 06:25:48;;;;;;;1.03;0.70;;;9.50;96.30;;;;;;4931280;29;20208;-78
2022/09/27 06:28:15;;;;;;;1.60;0.83;;;9.60;96.30;;;;;;4916147;29;20857;-78
2022/09/27 06:30:43;;;;;;;1.17;0.90;;;9.70;96.30;;;;;;4913938;29;20855;-78
2022/09/27 06:33:11;;;;;;;1.20;0.77;;;9.80;96.30;;;;;;4911740;29;21177;-79
2022/09/27 06:35:37;;;;;;;2.03;1.20;;;9.90;96.30;;;;;;4915280;29;20431;-79
2022/09/27 06:38:05;;;;;;;1.67;1.57;;;10.00;96.30;;;;;;4916945;29;20440;-79
2022/09/27 06:40:31;;;;;;;1.33;1.10;;;10.00;96.30;;;;;;4917620;29;20276;-79
2022/09/27 06:43:08;;;;;;;0.90;0.80;;;10.10;96.30;;;;;;4916358;29;20432;-79
2022/09/27 06:45:35;;;;;;;1.60;1.50;;;10.10;96.30;;;;;;4916541;29;20206;-79
2022/09/27 06:48:02;;;;;;;1.27;0.90;;;10.20;96.30;;;;;;4915081;29;20432;-79
2022/09/27 06:50:29;;;;;;;1.77;0.80;;;10.30;96.30;;;;;;4916812;29;20845;-80
2022/09/27 06:52:54;;;;;;;7.00;0.97;;;10.30;96.30;;;;;;4916886;29;20428;-79
2022/09/27 06:55:20;;;;;;;2.97;1.90;;;10.30;96.30;;;;;;4916766;29;20821;-79
2022/09/27 07:00:30;;;;;;;5.83;2.70;;;10.20;96.30;;;;;;4914999;29;20230;-79
2022/09/27 07:02:59;;;;;;;2.37;0.90;;;10.20;96.30;;;;;;4915416;29;20948;-79
2022/09/27 07:05:27;;;;;;;0.90;0.80;;;10.20;96.30;;;;;;4912934;29;20460;-79
2022/09/27 07:07:56;;;;;;;2.70;2.10;;;10.10;96.30;;;;;;4915061;29;20507;-79
2022/09/27 07:10:25;;;;;;;8.63;5.77;;;10.00;96.30;;;;;;4930315;29;20432;-79
2022/09/27 07:12:51;;;;;;;6.67;4.63;;;10.00;96.30;;;;;;4916837;29;20424;-78
2022/09/27 07:15:19;;;;;;;9.47;7.20;;;10.00;96.30;;;;;;4930760;29;20933;-79
2022/09/27 07:17:45;;;;;;;3.57;2.70;;;10.00;96.30;;;;;;4916713;29;20184;-78
2022/09/27 07:20:11;;;;;;;0.80;0.50;;;10.00;96.30;;;;;;4915792;29;20475;-78
2022/09/27 07:22:41;;;;;;;3.93;2.60;;;9.90;96.30;;;;;;4912800;29;20988;-79
2022/09/27 07:25:07;;;;;;;3.70;2.00;;;10.00;96.30;;;;;;4913184;29;20202;-78
2022/09/27 07:27:33;;;;;;;3.10;0.70;;;10.00;96.30;;;;;;4916369;29;20952;-79
2022/09/27 07:29:59;;;;;;;3.30;2.73;;;10.10;96.30;;;;;;4914700;29;20376;-76
2022/09/27 07:32:25;;;;;;;1.93;1.63;;;10.30;96.30;;;;;;4914828;29;20444;-78
2022/09/27 07:34:50;;;;;;;2.10;1.90;;;10.40;96.30;;;;;;4910489;29;20196;-77
2022/09/27 07:37:16;;;;;;;6.20;5.00;;;10.50;96.30;;;;;;4911242;29;20193;-76
2022/09/27 07:39:42;;;;;;;2.40;0.83;;;10.60;96.30;;;;;;4927313;29;20252;-81
2022/09/27 07:42:08;;;;;;;1.20;0.93;;;10.70;96.30;;;;;;4909620;29;20207;-76
2022/09/27 07:44:33;;;;;;;0.80;0.60;;;10.70;96.30;;;;;;4915173;29;20457;-75
2022/09/27 07:46:58;;;;;;;1.00;0.60;;;10.70;96.30;;;;;;4914064;29;20222;-75
2022/09/27 07:49:24;;;;;;;0.90;0.60;;;10.80;96.30;;;;;;4914719;29;20176;-75
2022/09/27 07:51:50;;;;;;;0.90;0.60;;;10.80;96.30;;;;;;4914007;29;20204;-75
2022/09/27 07:54:16;;;;;;;1.20;0.70;;;10.90;96.30;;;;;;4914588;29;20177;-78
2022/09/27 07:56:43;;;;;;;2.23;0.60;;;11.30;96.30;;;;;;4914164;29;20424;-77
2022/09/27 07:59:08;;;;;;;1.57;0.60;;;11.60;96.30;;;;;;4911656;29;20219;-76
2022/09/27 08:01:34;;;;;;;0.80;0.50;;;11.90;96.30;;;;;;4913107;29;20891;-77
2022/09/27 08:03:59;;;;;;;1.00;0.80;;;11.90;96.30;;;;;;4914571;29;20196;-75
2022/09/27 08:06:25;;;;;;;0.90;0.60;;;12.00;96.30;;;;;;4928247;29;20188;-76
2022/09/27 08:08:50;;;;;;;1.20;0.60;;;12.10;96.30;;;;;;4927245;29;20184;-76
2022/09/27 08:11:17;;;;;;;0.87;0.50;;;11.80;96.30;;;;;;4913618;29;20731;-75
2022/09/27 08:13:44;;;;;;;0.80;0.40;;;11.40;96.30;;;;;;4911236;29;20533;-77
2022/09/27 08:16:10;;;;;;;0.80;0.50;;;11.10;96.30;;;;;;4914811;29;20488;-77
2022/09/27 08:18:36;;;;;;;4.00;0.50;;;10.60;96.30;;;;;;4913449;29;20420;-75
2022/09/27 08:21:02;;;;;;;3.33;0.50;;;10.60;96.30;;;;;;4914082;29;20571;-76
2022/09/27 08:23:28;;;;;;;0.80;0.40;;;10.70;96.30;;;;;;4913204;29;20972;-76
2022/09/27 08:25:56;;;;;;;0.90;0.60;;;11.00;96.30;;;;;;4913906;29;20227;-76
2022/09/27 08:28:22;;;;;;;0.80;0.50;;;11.50;96.30;;;;;;4913014;29;20428;-77
2022/09/27 08:30:50;;;;;;;1.17;0.77;;;11.50;96.30;;;;;;4913663;29;20452;-78
2022/09/27 08:33:16;;;;;;;0.80;0.50;;;11.70;96.30;;;;;;4913129;29;20192;-76
2022/09/27 08:35:42;;;;;;;1.20;0.60;;;11.80;96.30;;;;;;4913506;29;20425;-80
2022/09/27 08:38:09;;;;;;;1.57;0.60;;;11.90;96.30;;;;;;4927818;29;20169;-75
2022/09/27 08:41:04;;;;;;;0.90;0.50;;;11.90;96.30;;;;;;4911793;29;20703;-77
2022/09/27 08:43:39;;;;;;;2.03;0.50;;;12.00;96.30;;;;;;4910364;29;20484;-76
2022/09/27 08:46:34;;;;;;;1.10;0.50;;;12.00;96.30;;;;;;4913752;29;20897;-76
2022/09/27 08:49:15;;;;;;;1.10;0.60;;;12.00;96.30;;;;;;4911950;29;20535;-75
2022/09/27 08:51:45;;;;;;;0.90;0.50;;;11.80;96.30;;;;;;4905286;29;20490;-79
2022/09/27 08:54:17;;;;;;;0.80;0.50;;;11.70;96.30;;;;;;4911815;29;20416;-79
2022/09/27 08:56:43;;;;;;;1.00;0.60;;;11.60;96.30;;;;;;4907581;29;20408;-76
2022/09/27 08:59:20;;;;;;;0.90;0.50;;;11.50;96.30;;;;;;4913233;29;20412;-76
2022/09/27 09:01:47;;;;;;;0.80;0.50;;;11.40;96.30;;;;;;4912281;29;20223;-75
2022/09/27 09:04:17;;;;;;;0.80;0.50;;;11.20;96.30;;;;;;4913071;29;20419;-76
2022/09/27 09:07:00;;;;;;;1.93;0.50;;;11.00;96.30;;;;;;4912395;29;20417;-76
2022/09/27 09:09:52;;;;;;;1.10;0.50;;;11.10;96.30;;;;;;4912348;29;20412;-75
2022/09/27 09:12:47;;;;;;;0.93;0.50;;;11.20;96.30;;;;;;4911185;29;20854;-75
2022/09/27 09:15:31;;;;;;;0.90;0.50;;;11.40;96.30;;;;;;4927192;29;20433;-77
2022/09/27 09:18:23;;;;;;;2.37;0.57;;;12.00;96.30;;;;;;4911883;29;20967;-75
2022/09/27 09:21:01;;;;;;;0.80;0.50;;;12.50;96.30;;;;;;4912244;29;20476;-75
2022/09/27 09:24:16;;;;;;;1.00;0.50;;;12.80;96.30;;;;;;4912699;29;20432;-74
2022/09/27 09:26:54;;;;;;;0.90;0.50;;;12.90;96.30;;;;;;4901235;29;20979;-78
2022/09/27 09:29:24;;;;;;;1.40;0.57;;;12.60;96.30;;;;;;4912691;29;20451;-75
2022/09/27 09:32:06;;;;;;;1.20;0.50;;;12.50;96.30;;;;;;4911764;29;20479;-75
2022/09/27 09:34:42;;;;;;;1.93;0.50;;;12.30;96.30;;;;;;4913003;29;20416;-75
2022/09/27 09:37:26;;;;;;;0.80;0.50;;;11.90;96.30;;;;;;4913684;29;20423;-75
2022/09/27 09:40:12;;;;;;;0.87;0.50;;;11.80;96.30;;;;;;4910886;29;20503;-76
2022/09/27 09:42:45;;;;;;;1.20;0.50;;;11.70;96.30;;;;;;4907982;29;20428;-76
2022/09/27 09:45:27;;;;;;;0.70;0.40;;;11.80;96.30;;;;;;4912365;29;20416;-76
2022/09/27 09:48:14;;;;;;;1.00;0.60;;;12.00;96.30;;;;;;4912756;29;20515;-76
2022/09/27 09:50:44;;;;;;;0.90;0.50;;;12.00;96.30;;;;;;4911404;29;20587;-78
2022/09/27 09:53:26;;;;;;;0.90;0.50;;;12.10;96.30;;;;;;4906065;29;20616;-79
2022/09/27 09:56:01;;;;;;;0.80;0.50;;;11.90;96.30;;;;;;4909182;29;20448;-78
2022/09/27 09:58:33;;;;;;;0.80;0.50;;;11.80;96.30;;;;;;4911194;29;20424;-76
2022/09/27 10:01:28;;;;;;;1.67;0.53;;;11.60;96.30;;;;;;4914461;29;20557;-77
2022/09/27 10:03:55;;;;;;;2.37;0.50;;;11.20;96.30;;;;;;4902626;29;20992;-77
2022/09/27 10:06:23;;;;;;;0.80;0.50;;;10.60;96.30;;;;;;4913157;29;20511;-79
2022/09/27 10:08:53;;;;;;;1.00;0.50;;;10.00;96.30;;;;;;4915514;29;20463;-79
2022/09/27 10:11:25;;;;;;;0.90;0.40;;;9.80;96.30;;;;;;4920825;29;20448;-78
2022/09/27 10:13:52;;;;;;;0.90;0.50;;;9.40;96.30;;;;;;4917723;29;20428;-79
2022/09/27 10:16:19;;;;;;;0.80;0.40;;;9.20;96.30;;;;;;4920123;29;20423;-78
2022/09/27 10:18:47;;;;;;;0.80;0.40;;;9.10;96.30;;;;;;4915494;29;21094;-78
2022/09/27 10:21:19;;;;;;;2.80;2.43;;;9.10;96.30;;;;;;4916769;29;20471;-76
2022/09/27 10:24:16;;;;;;;0.80;0.50;;;8.80;96.30;;;;;;4913920;29;20777;-76
2022/09/27 10:26:44;;;;;;;3.00;0.60;;;8.70;96.30;;;;;;4901884;29;20420;-73
2022/09/27 10:29:18;;;;;;;0.80;0.50;;;8.50;96.30;;;;;;4920284;29;20428;-75
2022/09/27 10:37:23;;;;;;;2.80;0.60;;;8.40;96.30;;;;;;5034331;23;20487;-77
2022/09/27 10:39:51;;;;;;;0.80;0.40;;;8.60;96.30;;;;;;4993968;28;20456;-77
2022/09/27 10:42:37;;;;;;;1.30;0.70;;;8.80;96.30;;;;;;4994691;28;20412;-77
2022/09/27 10:45:29;;;;;;;0.90;0.50;;;9.10;96.30;;;;;;4992244;28;20448;-77
2022/09/27 10:47:56;;;;;;;0.80;0.50;;;9.10;96.30;;;;;;4975187;28;20406;-77
2022/09/27 10:50:27;;;;;;;0.80;0.43;;;9.30;96.30;;;;;;4975550;28;20444;-78
2022/09/27 10:53:05;;;;;;;0.97;0.50;;;9.60;96.30;;;;;;4989870;28;20956;-78
2022/09/27 10:55:34;;;;;;;0.80;0.50;;;9.70;96.30;;;;;;4975419;28;20429;-79
2022/09/27 10:58:01;;;;;;;2.00;0.60;;;9.90;96.30;;;;;;4975367;28;20409;-79
2022/09/27 11:00:35;;;;;;;0.90;0.50;;;10.10;96.30;;;;;;4975160;28;21015;-79
2022/09/27 11:03:12;;;;;;;0.90;0.50;;;10.10;96.30;;;;;;4981076;28;20484;-80
2022/09/27 11:05:38;;;;;;;1.10;0.60;;;10.10;96.30;;;;;;4974422;28;20449;-80
2022/09/27 11:08:19;;;;;;;0.90;0.60;;;10.20;96.30;;;;;;4961052;28;20528;-80
2022/09/27 11:11:02;;;;;;;1.93;0.60;;;10.20;96.30;;;;;;4955512;28;20952;-79
2022/09/27 11:13:31;;;;;;;1.20;0.60;;;10.00;96.30;;;;;;4956623;28;20444;-80
2022/09/27 11:16:21;;;;;;;4.60;0.50;;;9.90;96.30;;;;;;4970561;28;20450;-80
2022/09/27 11:19:06;;;;;;;1.10;0.60;;;10.00;96.30;;;;;;4975043;28;20500;-78
2022/09/27 11:21:56;;;;;;;0.80;0.50;;;10.10;96.30;;;;;;4974302;28;20492;-78
2022/09/27 11:24:42;;;;;;;0.90;0.50;;;10.00;96.30;;;;;;4975488;28;20424;-78
2022/09/27 11:27:22;;;;;;;1.10;0.80;;;10.20;96.30;;;;;;4975459;28;20441;-78
2022/09/27 11:30:03;;;;;;;0.80;0.50;;;10.40;96.30;;;;;;4970498;28;20954;-78
2022/09/27 11:33:04;;;;;;;0.90;0.53;;;10.30;96.30;;;;;;4974811;28;20916;-79
2022/09/27 11:35:35;;;;;;;1.83;0.50;;;10.20;96.30;;;;;;4974262;28;20578;-78
2022/09/27 11:38:24;;;;;;;0.80;0.50;;;10.30;96.30;;;;;;4974945;28;20493;-79
2022/09/27 11:41:14;;;;;;;6.73;0.60;;;10.40;96.30;;;;;;4964569;28;20493;-78
2022/09/27 11:44:01;;;;;;;1.57;0.50;;;10.80;96.30;;;;;;4962682;28;21160;-78
2022/09/27 11:46:26;;;;;;;1.00;0.50;;;11.10;96.30;;;;;;4977702;28;20477;-77
2022/09/27 11:49:02;;;;;;;1.03;0.60;;;11.00;96.30;;;;;;4974756;28;20917;-78
2022/09/27 11:51:45;;;;;;;0.80;0.47;;;11.20;96.30;;;;;;4974313;28;20170;-78
2022/09/27 11:54:30;;;;;;;0.90;0.50;;;11.00;96.30;;;;;;4977819;28;20414;-77
2022/09/27 11:57:05;;;;;;;0.93;0.60;;;11.00;96.30;;;;;;4973847;28;20521;-79
2022/09/27 11:59:33;;;;;;;0.83;0.53;;;11.20;96.30;;;;;;4955408;28;20444;-78
2022/09/27 12:02:33;;;;;;;0.93;0.57;;;11.10;96.30;;;;;;4954502;28;20461;-78
2022/09/27 12:05:25;;;;;;;2.27;0.70;;;10.90;96.30;;;;;;4968991;28;20808;-78
2022/09/27 12:08:24;;;;;;;1.00;0.57;;;10.70;96.30;;;;;;4953959;28;20445;-79
2022/09/27 12:10:57;;;;;;;0.90;0.50;;;11.00;96.30;;;;;;4961797;28;20754;-78
2022/09/27 12:13:36;;;;;;;0.90;0.57;;;11.30;96.30;;;;;;4962920;28;20798;-77
2022/09/27 12:16:03;;;;;;;1.00;0.50;;;11.40;96.30;;;;;;4977502;28;20823;-76
2022/09/27 12:18:37;;;;;;;1.33;0.50;;;11.30;96.30;;;;;;4977479;28;20435;-78
2022/09/27 12:21:06;;;;;;;4.10;0.50;;;11.10;96.30;;;;;;4980044;28;20472;-77
2022/09/27 12:23:40;;;;;;;1.00;0.50;;;11.20;96.30;;;;;;4979519;28;20436;-77
2022/09/27 12:26:15;;;;;;;1.00;0.60;;;11.20;96.30;;;;;;4981539;28;20799;-77
2022/09/27 12:29:01;;;;;;;1.87;0.60;;;11.30;96.30;;;;;;4979384;28;20413;-77
2022/09/27 12:31:43;;;;;;;0.80;0.50;;;11.60;96.30;;;;;;4977821;28;20445;-76
2022/09/27 12:34:15;;;;;;;1.53;0.60;;;11.90;96.30;;;;;;4975257;28;20425;-76
2022/09/27 12:36:48;;;;;;;0.90;0.60;;;12.30;96.30;;;;;;4977382;28;20461;-75
2022/09/27 12:39:36;;;;;;;0.90;0.50;;;12.70;96.30;;;;;;4980337;28;20428;-77
2022/09/27 12:42:10;;;;;;;0.80;0.50;;;12.70;96.30;;;;;;4977028;28;20426;-76
2022/09/27 12:44:39;;;;;;;1.13;1.00;;;12.10;96.30;;;;;;4969792;28;20421;-76
2022/09/27 12:47:23;;;;;;;1.03;0.60;;;12.20;96.30;;;;;;4963215;28;20505;-77
2022/09/27 12:50:09;;;;;;;1.00;0.60;;;11.80;96.30;;;;;;4976528;28;20873;-76
2022/09/27 12:52:43;;;;;;;1.27;0.53;;;11.80;96.30;;;;;;4982939;28;20428;-76
2022/09/27 12:55:26;;;;;;;0.87;0.50;;;11.50;96.30;;;;;;4980166;28;20433;-76
2022/09/27 12:58:16;;;;;;;1.00;0.70;;;11.20;96.30;;;;;;4979779;28;20430;-76
2022/09/27 13:00:52;;;;;;;0.90;0.70;;;10.90;96.30;;;;;;4959709;28;20457;-79
2022/09/27 13:03:54;;;;;;;1.10;0.90;;;11.00;96.30;;;;;;4958530;28;20461;-76
2022/09/27 13:06:51;;;;;;;1.00;0.70;;;12.00;96.30;;;;;;4972666;28;20941;-76
2022/09/27 13:09:44;;;;;;;0.90;0.60;;;12.40;96.30;;;;;;4980530;28;20421;-75
2022/09/27 13:12:17;;;;;;;3.20;0.80;;;12.30;96.30;;;;;;4965986;28;20436;-79
2022/09/27 13:15:00;;;;;;;0.90;0.60;;;12.00;96.30;;;;;;4957818;28;20441;-78
2022/09/27 13:17:39;;;;;;;0.97;0.60;;;11.80;96.30;;;;;;4961794;28;20774;-76
2022/09/27 13:20:34;;;;;;;2.27;0.80;;;11.90;96.30;;;;;;4968579;28;20739;-75
2022/09/27 13:23:20;;;;;;;1.80;0.67;;;11.50;96.30;;;;;;4972930;28;20466;-76
2022/09/27 13:25:55;;;;;;;2.23;0.80;;;11.30;96.30;;;;;;4960772;28;20921;-76
2022/09/27 13:28:30;;;;;;;3.57;0.80;;;11.10;96.30;;;;;;4966252;28;20420;-76
2022/09/27 13:31:05;;;;;;;1.83;0.80;;;10.90;96.30;;;;;;4978050;28;20432;-76
2022/09/27 13:33:49;;;;;;;0.80;0.50;;;10.70;96.30;;;;;;4978232;28;20423;-75
2022/09/27 13:36:23;;;;;;;0.80;0.50;;;10.50;96.30;;;;;;4981183;28;20531;-75
2022/09/27 13:39:03;;;;;;;0.90;0.50;;;10.40;96.30;;;;;;4982208;28;20423;-76
2022/09/27 13:41:44;;;;;;;2.10;0.60;;;10.20;96.30;;;;;;4980407;28;20461;-77
2022/09/27 13:44:39;;;;;;;1.60;0.67;;;10.00;96.30;;;;;;4971572;28;20842;-76
2022/09/27 13:47:31;;;;;;;0.90;0.57;;;9.80;96.30;;;;;;4975052;28;20952;-77
2022/09/27 13:50:12;;;;;;;0.90;0.60;;;9.90;96.30;;;;;;4978350;28;20492;-76
2022/09/27 13:52:41;;;;;;;0.90;0.60;;;10.00;96.30;;;;;;4977656;28;20492;-78
2022/09/27 13:55:40;;;;;;;2.80;0.70;;;10.50;96.30;;;;;;4977222;28;20953;-78
2022/09/27 13:58:15;;;;;;;0.90;0.60;;;11.00;96.30;;;;;;4976996;28;20425;-78
2022/09/27 14:00:44;;;;;;;1.47;0.77;;;11.70;96.30;;;;;;4977030;28;21186;-78
2022/09/27 14:03:29;;;;;;;0.90;0.50;;;11.80;96.30;;;;;;4974509;28;20512;-77
2022/09/27 14:06:01;;;;;;;1.83;0.77;;;12.20;96.30;;;;;;4975171;28;20436;-76
2022/09/27 14:08:32;;;;;;;1.07;0.70;;;12.00;96.30;;;;;;4973568;28;20481;-79
2022/09/27 14:10:59;;;;;;;0.90;0.50;;;11.50;96.30;;;;;;4971930;28;20425;-77
2022/09/27 14:13:25;;;;;;;1.10;0.77;;;11.30;96.30;;;;;;4964787;28;20929;-83
2022/09/27 14:15:53;;;;;;;0.90;0.70;;;10.70;96.30;;;;;;4982970;28;20969;-79
2022/09/27 14:18:21;;;;;;;1.13;0.80;;;10.30;96.30;;;;;;4971377;28;20422;-75
2022/09/27 14:20:50;;;;;;;0.90;0.60;;;10.00;96.30;;;;;;4974699;28;20944;-75
2022/09/27 14:23:22;;;;;;;1.23;0.60;;;9.70;96.30;;;;;;4990614;28;20424;-76
2022/09/27 14:25:53;;;;;;;1.03;0.60;;;9.40;96.30;;;;;;4976100;28;20480;-77
2022/09/27 14:28:29;;;;;;;2.70;0.70;;;9.50;96.30;;;;;;4990897;28;20417;-75
2022/09/27 14:31:24;;;;;;;1.63;0.77;;;9.30;96.30;;;;;;4976147;28;20433;-75
2022/09/27 14:34:03;;;;;;;0.90;0.60;;;9.30;96.30;;;;;;4966714;28;20817;-75
2022/09/27 14:39:31;;;;;;;0.90;0.70;;;9.20;96.30;;;;;;4976123;28;20525;-74
2022/09/27 14:41:58;;;;;;;1.10;0.60;;;9.50;96.30;;;;;;4991005;28;20784;-74
2022/09/27 14:44:24;;;;;;;1.73;0.70;;;10.30;96.30;;;;;;4975859;28;20909;-75
2022/09/27 14:47:15;;;;;;;1.80;0.70;;;10.80;96.30;;;;;;4975467;28;20532;-75
2022/09/27 14:49:56;;;;;;;0.97;0.70;;;10.70;96.30;;;;;;4975684;28;20390;-77
2022/09/27 14:52:27;;;;;;;0.90;0.70;;;10.50;96.30;;;;;;4975559;28;20393;-75
2022/09/27 14:55:16;;;;;;;1.20;0.77;;;10.30;96.30;;;;;;4987706;28;20480;-77
2022/09/27 14:57:51;;;;;;;1.00;0.70;;;10.10;96.30;;;;;;4963496;28;20839;-77
2022/09/27 15:00:19;;;;;;;1.30;0.90;;;9.80;96.30;;;;;;4975537;28;20463;-75
2022/09/27 15:02:45;;;;;;;3.90;0.90;;;9.60;96.30;;;;;;4975286;28;21136;-76
2022/09/27 15:05:17;;;;;;;2.17;1.37;;;9.30;96.30;;;;;;5003857;28;20445;-77
2022/09/27 15:07:45;;;;;;;46.67;31.13;;;9.20;96.30;;;;;;4958969;28;20427;-75
2022/09/27 15:10:21;;;;;;;1.17;0.87;;;9.10;96.30;;;;;;4957413;29;20415;-77
2022/09/27 15:12:50;;;;;;;1.17;0.80;;;8.90;96.30;;;;;;4957421;29;20406;-77
2022/09/27 15:15:21;;;;;;;1.20;0.80;;;8.70;96.30;;;;;;4974439;28;20445;-77
2022/09/27 15:17:47;;;;;;;1.93;0.70;;;8.60;96.30;;;;;;4974996;28;20406;-75
2022/09/27 15:20:27;;;;;;;1.20;0.80;;;8.50;96.30;;;;;;4994441;28;20571;-73
2022/09/27 15:22:58;;;;;;;1.73;0.90;;;8.50;96.30;;;;;;4982981;28;20829;-73
2022/09/27 15:25:37;;;;;;;0.87;0.60;;;8.50;96.30;;;;;;4974931;28;20425;-73
2022/09/27 15:28:16;;;;;;;0.90;0.60;;;8.60;96.30;;;;;;4964980;28;20441;-75
2022/09/27 15:30:51;;;;;;;1.80;1.00;;;8.70;96.30;;;;;;4954388;29;20871;-73
2022/09/27 15:33:22;;;;;;;1.10;0.80;;;8.60;96.30;;;;;;4974499;28;20429;-74
2022/09/27 15:35:50;;;;;;;2.50;0.83;;;8.40;96.30;;;;;;4963080;28;20592;-74
2022/09/27 15:38:23;;;;;;;1.10;0.80;;;8.20;96.30;;;;;;4955368;28;20426;-75
2022/09/27 15:40:49;;;;;;;1.83;0.70;;;8.20;96.30;;;;;;4965031;28;20531;-74
2022/09/27 15:43:33;;;;;;;0.90;0.70;;;8.10;96.30;;;;;;4974023;28;20909;-76
2022/09/27 15:46:02;;;;;;;0.93;0.80;;;8.10;96.30;;;;;;4974693;28;20249;-76
2022/09/27 15:48:36;;;;;;;2.60;0.80;;;8.10;96.30;;;;;;4983803;28;20803;-76
2022/09/27 15:51:01;;;;;;;1.30;0.80;;;8.20;96.30;;;;;;4966311;28;20414;-78
2022/09/27 15:53:33;;;;;;;1.20;0.80;;;8.20;96.30;;;;;;4963108;28;20419;-77
2022/09/27 15:56:01;;;;;;;2.40;0.70;;;8.30;96.30;;;;;;4970082;28;20202;-78
2022/09/27 15:58:27;;;;;;;1.00;0.87;;;8.30;96.30;;;;;;4973058;28;20964;-77
2022/09/27 16:00:58;;;;;;;1.00;0.70;;;8.40;96.30;;;;;;4973540;28;20497;-78
2022/09/27 16:03:25;;;;;;;1.37;0.80;;;8.40;96.30;;;;;;4967981;28;20922;-78
2022/09/27 16:05:54;;;;;;;1.40;0.90;;;8.40;96.30;;;;;;4965133;28;20434;-78
2022/09/27 16:08:19;;;;;;;1.60;1.30;;;8.30;96.30;;;;;;4961837;28;20433;-78
2022/09/27 16:10:49;;;;;;;2.73;1.70;;;8.30;96.30;;;;;;4956759;28;20514;-78
2022/09/27 16:13:14;;;;;;;2.03;1.03;;;8.20;96.30;;;;;;4953181;29;20183;-78
2022/09/27 16:15:40;;;;;;;1.60;1.13;;;8.20;96.30;;;;;;4954771;28;20531;-78
2022/09/27 16:18:05;;;;;;;1.57;0.80;;;8.10;96.30;;;;;;4955036;28;20186;-78
2022/09/27 16:20:31;;;;;;;1.63;1.30;;;8.10;96.30;;;;;;4956156;28;20199;-77
2022/09/27 16:22:57;;;;;;;1.40;1.30;;;8.00;96.30;;;;;;4973750;29;20213;-78
2022/09/27 16:25:23;;;;;;;1.40;1.00;;;7.90;96.30;;;;;;4978457;28;20230;-77
2022/09/27 16:27:50;;;;;;;2.67;1.30;;;7.80;96.30;;;;;;4979534;28;20406;-74
2022/09/27 16:30:16;;;;;;;0.90;0.70;;;7.80;96.30;;;;;;4980221;28;20415;-75
2022/09/27 16:32:44;;;;;;;1.97;0.80;;;7.70;96.30;;;;;;4964936;28;20514;-78
2022/09/27 16:35:11;;;;;;;1.83;1.00;;;7.70;96.30;;;;;;4953643;28;20521;-78
2022/09/27 16:37:37;;;;;;;2.40;0.80;;;7.70;96.30;;;;;;4954932;28;20418;-78
2022/09/27 16:40:04;;;;;;;2.27;1.00;;;7.70;96.30;;;;;;4954437;28;20524;-78
2022/09/27 16:42:30;;;;;;;2.77;1.27;;;7.60;96.30;;;;;;4953347;28;20187;-78
2022/09/27 16:44:55;;;;;;;1.80;0.93;;;7.50;96.30;;;;;;4953854;29;20442;-77
2022/09/27 16:47:21;;;;;;;1.77;1.10;;;7.40;96.30;;;;;;4954544;29;20195;-78
2022/09/27 16:52:33;;;;;;;2.10;1.10;;;7.40;96.30;;;;;;4981547;28;20185;-78
2022/09/27 16:54:59;;;;;;;3.57;1.40;;;7.40;96.30;;;;;;4981001;28;20413;-79
2022/09/27 16:57:29;;;;;;;3.53;2.17;;;7.30;96.30;;;;;;4970447;28;20466;-78
2022/09/27 16:59:56;;;;;;;3.47;1.80;;;7.30;96.30;;;;;;4965903;28;20454;-78
2022/09/27 17:02:23;;;;;;;1.67;1.13;;;7.40;96.30;;;;;;4971751;28;20464;-78
2022/09/27 17:04:48;;;;;;;5.20;1.20;;;7.40;96.30;;;;;;5003286;28;20475;-77
2022/09/27 17:07:14;;;;;;;1.20;1.10;;;7.40;96.30;;;;;;4974841;28;20520;-77
2022/09/27 17:09:39;;;;;;;1.70;0.97;;;7.30;96.30;;;;;;4984178;28;20181;-78
2022/09/27 17:12:05;;;;;;;1.73;1.20;;;7.40;96.30;;;;;;4969468;28;20178;-77
2022/09/27 17:14:31;;;;;;;2.17;1.27;;;7.40;96.30;;;;;;4966033;28;20552;-77
2022/09/27 17:16:57;;;;;;;1.83;1.20;;;7.50;96.30;;;;;;4961120;28;20446;-78
2022/09/27 17:19:22;;;;;;;1.10;1.00;;;7.50;96.30;;;;;;4971410;28;20178;-78
2022/09/27 17:21:49;;;;;;;1.97;1.43;;;7.60;96.30;;;;;;4962894;28;21065;-79
2022/09/27 17:24:14;;;;;;;3.90;2.13;;;7.70;96.30;;;;;;4954458;28;20648;-79
2022/09/27 17:26:40;;;;;;;3.63;1.70;;;7.70;96.30;;;;;;4953311;28;20446;-79
2022/09/27 17:29:07;;;;;;;1.57;1.00;;;7.60;96.30;;;;;;4954688;29;20219;-77
2022/09/27 17:31:35;;;;;;;1.10;0.80;;;7.50;96.30;;;;;;4954558;29;20605;-78
2022/09/27 17:34:01;;;;;;;1.20;0.87;;;7.40;96.30;;;;;;4956800;28;20436;-77
2022/09/27 17:36:31;;;;;;;1.30;0.87;;;7.20;96.30;;;;;;4958552;28;20462;-77
2022/09/27 17:38:58;;;;;;;1.20;0.70;;;7.00;96.30;;;;;;4953635;28;20258;-75